Time;durP1;ratioP1;P1;durP2;ratioP2;P2;SDS_P1;SDS_P2;PMS_P1;PMS_P2;Temp;Humidity;BMP_temperature;BMP_pressure;BME280_temperature;BME280_humidity;BME280_pressure;Samples;Min_cycle;Max_cycle;Signal;HPM_P1;HPM_P2
2021/03/06 00:00:22;;;;;;;8.33;5.10;;;-1.30;99.90;;;;;;5008039;28;20075;-61
2021/03/06 00:02:49;;;;;;;10.73;5.03;;;-1.30;99.90;;;;;;5009402;28;20204;-61
2021/03/06 00:05:15;;;;;;;11.67;5.07;;;-1.40;99.90;;;;;;5013267;28;20033;-61
2021/03/06 00:07:41;;;;;;;12.93;5.13;;;-1.40;99.90;;;;;;5006568;28;20491;-61
2021/03/06 00:10:11;;;;;;;10.50;4.53;;;-1.40;99.90;;;;;;5008426;28;20045;-59
2021/03/06 00:12:38;;;;;;;9.37;4.80;;;-1.40;99.90;;;;;;5012047;28;20093;-61
2021/03/06 00:15:05;;;;;;;12.03;4.87;;;-1.40;99.90;;;;;;5016693;28;20021;-60
2021/03/06 00:17:30;;;;;;;14.77;5.10;;;-1.50;99.90;;;;;;5008325;28;20029;-61
2021/03/06 00:19:56;;;;;;;13.03;5.63;;;-1.50;99.90;;;;;;5012251;28;20041;-60
2021/03/06 00:22:21;;;;;;;8.70;4.87;;;-1.50;99.90;;;;;;5012514;28;20057;-59
2021/03/06 00:24:47;;;;;;;10.60;6.13;;;-1.50;99.90;;;;;;5013581;28;20037;-61
2021/03/06 00:27:13;;;;;;;9.00;5.47;;;-1.50;99.90;;;;;;5014877;28;20030;-60
2021/03/06 00:29:38;;;;;;;9.03;4.70;;;-1.60;99.90;;;;;;5017556;28;20423;-60
2021/03/06 00:32:04;;;;;;;8.60;4.93;;;-1.60;99.90;;;;;;5014788;28;20041;-62
2021/03/06 00:34:30;;;;;;;12.17;5.30;;;-1.70;99.90;;;;;;5022390;28;20041;-61
2021/03/06 00:36:55;;;;;;;8.87;4.63;;;-1.70;99.90;;;;;;5017904;28;20022;-60
2021/03/06 00:39:21;;;;;;;7.47;4.20;;;-1.70;99.90;;;;;;5021457;28;20035;-61
2021/03/06 00:41:46;;;;;;;11.10;5.30;;;-1.60;99.90;;;;;;5009757;28;20033;-59
2021/03/06 00:44:12;;;;;;;13.90;5.23;;;-1.60;99.90;;;;;;5010646;28;20034;-60
2021/03/06 00:46:37;;;;;;;11.57;4.43;;;-1.60;99.90;;;;;;5011030;28;20037;-60
2021/03/06 00:49:03;;;;;;;6.40;4.23;;;-1.60;99.90;;;;;;5010722;28;20109;-61
2021/03/06 00:51:29;;;;;;;10.20;5.10;;;-1.60;99.90;;;;;;5011892;28;20083;-61
2021/03/06 00:53:54;;;;;;;9.23;4.57;;;-1.60;99.90;;;;;;5009625;28;20034;-62
2021/03/06 00:56:20;;;;;;;9.37;4.43;;;-1.60;99.90;;;;;;5015140;28;20033;-61
2021/03/06 00:58:45;;;;;;;11.83;5.33;;;-1.70;99.90;;;;;;5001091;28;20048;-60
2021/03/06 01:01:12;;;;;;;9.60;4.57;;;-1.60;99.90;;;;;;5011193;28;20093;-59
2021/03/06 01:03:38;;;;;;;7.77;4.90;;;-1.70;99.90;;;;;;5001826;28;20464;-61
2021/03/06 01:06:07;;;;;;;9.13;4.77;;;-1.70;99.90;;;;;;5005552;28;20033;-60
2021/03/06 01:08:35;;;;;;;11.20;5.03;;;-1.70;99.90;;;;;;5005725;28;20034;-62
2021/03/06 01:11:02;;;;;;;13.33;4.53;;;-1.70;99.90;;;;;;4978232;28;20037;-61
2021/03/06 01:13:29;;;;;;;11.43;5.53;;;-1.70;99.90;;;;;;5010035;28;20026;-61
2021/03/06 01:15:55;;;;;;;10.07;5.03;;;-1.70;99.90;;;;;;5017755;28;20083;-60
2021/03/06 01:18:21;;;;;;;11.67;4.47;;;-1.70;99.90;;;;;;5008136;28;20579;-61
2021/03/06 01:20:47;;;;;;;12.20;4.93;;;-1.80;99.90;;;;;;5005180;28;20045;-60
2021/03/06 01:23:13;;;;;;;9.07;5.17;;;-1.80;99.90;;;;;;5011435;28;20060;-61
2021/03/06 01:25:40;;;;;;;9.57;5.40;;;-1.80;99.90;;;;;;5005995;28;20033;-62
2021/03/06 01:28:06;;;;;;;10.37;4.73;;;-1.90;99.90;;;;;;5011891;28;20511;-62
2021/03/06 01:30:32;;;;;;;10.67;5.40;;;-1.90;99.90;;;;;;5012868;28;20025;-62
2021/03/06 01:32:57;;;;;;;7.80;4.73;;;-1.90;99.90;;;;;;5009847;28;20033;-61
2021/03/06 01:35:25;;;;;;;7.67;4.17;;;-1.90;99.90;;;;;;5012645;28;20033;-61
2021/03/06 01:37:51;;;;;;;9.13;5.13;;;-1.90;99.90;;;;;;5011580;28;20109;-60
2021/03/06 01:40:27;;;;;;;9.97;5.10;;;-1.90;99.90;;;;;;5011466;28;20109;-62
2021/03/06 01:42:53;;;;;;;9.60;4.83;;;-1.90;99.90;;;;;;5009777;28;20091;-61
2021/03/06 01:45:18;;;;;;;11.30;5.97;;;-2.00;99.90;;;;;;5019527;28;20034;-62
2021/03/06 01:47:44;;;;;;;10.23;4.77;;;-2.00;99.90;;;;;;5014150;28;20487;-59
2021/03/06 01:50:12;;;;;;;10.80;5.37;;;-2.00;99.90;;;;;;5016959;28;20026;-61
2021/03/06 01:52:38;;;;;;;8.77;4.93;;;-2.00;99.90;;;;;;5018636;28;20042;-62
2021/03/06 01:55:04;;;;;;;7.13;4.27;;;-2.00;99.90;;;;;;5017921;28;20052;-61
2021/03/06 01:57:30;;;;;;;14.33;5.77;;;-2.00;99.90;;;;;;5002634;28;20046;-60
2021/03/06 01:59:56;;;;;;;11.30;4.70;;;-2.00;99.90;;;;;;5008767;28;20414;-61
2021/03/06 02:02:23;;;;;;;9.43;4.90;;;-2.00;99.90;;;;;;5013613;28;20026;-62
2021/03/06 02:04:48;;;;;;;8.23;4.40;;;-2.00;99.90;;;;;;5011973;28;20527;-62
2021/03/06 02:07:14;;;;;;;9.57;4.93;;;-2.00;99.90;;;;;;5013589;28;20091;-61
2021/03/06 02:09:40;;;;;;;12.30;4.63;;;-1.90;99.90;;;;;;5019648;28;20022;-61
2021/03/06 02:12:18;;;;;;;10.10;4.90;;;-1.90;99.90;;;;;;5013913;28;20026;-62
2021/03/06 02:15:11;;;;;;;9.00;4.80;;;-2.00;99.90;;;;;;5008186;28;20064;-60
2021/03/06 02:18:01;;;;;;;9.50;4.60;;;-2.00;99.90;;;;;;5008159;28;20061;-60
2021/03/06 02:20:45;;;;;;;7.70;4.13;;;-2.00;99.90;;;;;;5007066;28;20047;-62
2021/03/06 02:23:30;;;;;;;10.13;5.57;;;-2.10;99.90;;;;;;5006797;28;20480;-61
2021/03/06 02:26:14;;;;;;;7.95;5.05;;;-2.10;99.90;;;;;;5007600;28;20030;-62
2021/03/06 02:29:06;;;;;;;8.10;4.47;;;-2.10;99.90;;;;;;5015251;28;20061;-62
2021/03/06 02:31:35;;;;;;;10.63;5.13;;;-2.20;99.90;;;;;;5017186;28;20056;-60
2021/03/06 02:34:08;;;;;;;12.57;5.90;;;-2.30;99.90;;;;;;5014176;28;20041;-61
2021/03/06 02:36:37;;;;;;;9.25;5.43;;;-2.20;99.90;;;;;;5012687;28;20044;-60
2021/03/06 02:39:09;;;;;;;9.93;4.77;;;-2.20;99.90;;;;;;5018327;28;20026;-61
2021/03/06 02:41:37;;;;;;;11.70;5.20;;;-2.20;99.90;;;;;;5013984;28;20064;-61
2021/03/06 02:44:05;;;;;;;8.03;4.30;;;-2.20;99.90;;;;;;5013256;28;20033;-61
2021/03/06 02:46:31;;;;;;;10.67;5.27;;;-2.20;99.90;;;;;;5002816;28;20129;-61
2021/03/06 02:48:57;;;;;;;17.97;5.13;;;-2.20;99.90;;;;;;5014021;28;20013;-60
2021/03/06 02:51:23;;;;;;;15.87;6.27;;;-2.20;99.90;;;;;;5017582;28;20076;-60
2021/03/06 02:53:49;;;;;;;11.83;4.73;;;-2.30;99.90;;;;;;5014131;28;20490;-61
2021/03/06 02:56:16;;;;;;;13.87;5.07;;;-2.20;99.90;;;;;;5021114;28;20022;-60
2021/03/06 02:58:57;;;;;;;12.47;5.07;;;-2.20;99.90;;;;;;4996830;28;20034;-58
2021/03/06 03:01:44;;;;;;;10.37;4.60;;;-2.20;99.90;;;;;;5013944;28;20401;-61
2021/03/06 03:04:18;;;;;;;9.93;5.03;;;-2.30;99.90;;;;;;5017458;28;20124;-61
2021/03/06 03:06:48;;;;;;;18.35;4.82;;;-2.30;99.90;;;;;;5009185;28;20499;-61
2021/03/06 03:09:21;;;;;;;7.90;5.07;;;-2.30;99.90;;;;;;5020343;28;20030;-61
2021/03/06 03:12:07;;;;;;;11.52;4.93;;;-2.40;99.90;;;;;;4982139;28;20060;-61
2021/03/06 03:14:45;;;;;;;10.73;5.53;;;-2.30;99.90;;;;;;5009892;28;20034;-61
2021/03/06 03:17:17;;;;;;;10.73;5.40;;;-2.40;99.90;;;;;;5011764;28;20581;-61
2021/03/06 03:19:49;;;;;;;10.33;4.83;;;-2.40;99.90;;;;;;5016327;28;20017;-60
2021/03/06 03:22:19;;;;;;;9.17;4.90;;;-2.40;99.90;;;;;;5022836;28;20050;-60
2021/03/06 03:24:49;;;;;;;15.10;4.90;;;-2.40;99.90;;;;;;5004629;28;20539;-61
2021/03/06 03:27:16;;;;;;;8.67;4.70;;;-2.40;99.90;;;;;;5007708;28;20690;-60
2021/03/06 03:29:42;;;;;;;7.27;4.87;;;-2.50;99.90;;;;;;5010547;28;20104;-61
2021/03/06 03:32:10;;;;;;;10.73;5.10;;;-2.50;99.90;;;;;;5017563;28;20018;-61
2021/03/06 03:34:37;;;;;;;13.83;5.27;;;-2.50;99.90;;;;;;5002514;28;20026;-61
2021/03/06 03:37:04;;;;;;;9.93;5.27;;;-2.40;99.90;;;;;;5017867;28;20088;-61
2021/03/06 03:39:30;;;;;;;14.40;5.40;;;-2.40;99.90;;;;;;5020388;28;20026;-61
2021/03/06 03:41:58;;;;;;;18.80;5.60;;;-2.40;99.90;;;;;;5007764;28;20026;-61
2021/03/06 03:44:24;;;;;;;10.73;4.93;;;-2.50;99.90;;;;;;5007416;28;20593;-60
2021/03/06 03:46:51;;;;;;;9.00;5.10;;;-2.50;99.90;;;;;;5010810;28;20022;-61
2021/03/06 03:49:20;;;;;;;9.40;5.63;;;-2.50;99.90;;;;;;5020210;28;20495;-60
2021/03/06 03:51:47;;;;;;;11.60;4.93;;;-2.50;99.90;;;;;;5003909;28;20531;-60
2021/03/06 03:54:14;;;;;;;9.70;5.00;;;-2.50;99.90;;;;;;5020016;28;20450;-60
2021/03/06 03:56:40;;;;;;;9.37;5.20;;;-2.50;99.90;;;;;;5020122;28;20121;-61
2021/03/06 03:59:06;;;;;;;15.17;6.00;;;-2.60;99.90;;;;;;4982955;28;20058;-61
2021/03/06 04:01:41;;;;;;;7.83;4.67;;;-2.60;99.90;;;;;;5004129;28;20509;-59
2021/03/06 04:04:09;;;;;;;8.00;4.83;;;-2.60;99.90;;;;;;5024991;28;20032;-61
2021/03/06 04:06:35;;;;;;;10.07;5.07;;;-2.60;99.90;;;;;;5020639;28;20040;-60
2021/03/06 04:09:01;;;;;;;10.63;6.03;;;-2.70;99.90;;;;;;5019562;28;20592;-60
2021/03/06 04:11:27;;;;;;;10.30;6.27;;;-2.70;99.90;;;;;;5016387;28;20053;-60
2021/03/06 04:13:52;;;;;;;12.20;6.07;;;-2.80;99.90;;;;;;4993063;28;20499;-61
2021/03/06 04:16:18;;;;;;;19.17;6.33;;;-2.80;99.90;;;;;;5018985;28;20391;-58
2021/03/06 04:18:44;;;;;;;12.00;5.83;;;-2.90;99.90;;;;;;5011986;28;20566;-61
2021/03/06 04:21:09;;;;;;;10.10;5.83;;;-2.90;99.90;;;;;;5011181;28;20439;-60
2021/03/06 04:23:35;;;;;;;10.73;6.10;;;-3.00;99.90;;;;;;5019632;28;20437;-57
2021/03/06 04:26:00;;;;;;;14.50;6.03;;;-3.00;99.90;;;;;;5010345;28;20061;-60
2021/03/06 04:28:26;;;;;;;9.77;5.43;;;-3.10;99.90;;;;;;5020130;28;20029;-59
2021/03/06 04:30:51;;;;;;;8.50;5.20;;;-3.10;99.90;;;;;;5012801;28;20034;-62
2021/03/06 04:33:17;;;;;;;11.97;5.97;;;-3.10;99.90;;;;;;5012370;28;20026;-60
2021/03/06 04:35:42;;;;;;;9.83;5.70;;;-3.10;99.90;;;;;;5025415;28;20026;-59
2021/03/06 04:38:08;;;;;;;9.70;6.03;;;-3.20;99.90;;;;;;5011548;28;20025;-60
2021/03/06 04:40:33;;;;;;;11.53;5.90;;;-3.20;99.90;;;;;;5021689;28;20044;-58
2021/03/06 04:42:59;;;;;;;15.13;5.97;;;-3.20;99.90;;;;;;5012151;28;20022;-60
2021/03/06 04:45:25;;;;;;;8.90;5.27;;;-3.20;99.90;;;;;;5019655;28;20163;-58
2021/03/06 04:47:52;;;;;;;14.73;6.30;;;-3.20;99.90;;;;;;5015063;28;20026;-59
2021/03/06 04:50:18;;;;;;;12.70;5.63;;;-3.10;99.90;;;;;;5019818;28;20030;-61
2021/03/06 04:52:43;;;;;;;11.20;5.77;;;-3.10;99.90;;;;;;5009582;28;20048;-60
2021/03/06 04:55:09;;;;;;;9.00;5.23;;;-3.10;99.90;;;;;;5019741;28;20044;-61
2021/03/06 04:57:35;;;;;;;10.37;5.67;;;-3.00;99.90;;;;;;5017692;28;20034;-60
2021/03/06 05:00:03;;;;;;;11.03;5.13;;;-3.10;99.90;;;;;;4984962;28;20049;-62
2021/03/06 05:02:29;;;;;;;16.13;5.87;;;-3.10;99.90;;;;;;5018202;28;20076;-59
2021/03/06 05:04:57;;;;;;;12.27;5.90;;;-3.10;99.90;;;;;;5001832;28;20018;-60
2021/03/06 05:07:22;;;;;;;8.43;5.27;;;-3.00;99.90;;;;;;5015163;28;20033;-61
2021/03/06 05:09:48;;;;;;;12.60;5.27;;;-3.00;99.90;;;;;;5009204;28;20030;-62
2021/03/06 05:12:13;;;;;;;12.87;5.90;;;-3.00;99.90;;;;;;5014058;28;20021;-59
2021/03/06 05:14:39;;;;;;;8.50;5.47;;;-3.00;99.90;;;;;;4998588;28;20308;-59
2021/03/06 05:17:04;;;;;;;12.50;5.60;;;-3.00;99.90;;;;;;5008134;28;20125;-61
2021/03/06 05:19:30;;;;;;;13.17;5.90;;;-3.10;99.90;;;;;;5027124;28;20036;-61
2021/03/06 05:21:56;;;;;;;15.73;6.97;;;-3.10;99.90;;;;;;4998254;28;20117;-60
2021/03/06 05:24:21;;;;;;;11.33;5.50;;;-3.20;99.90;;;;;;5006556;28;20072;-60
2021/03/06 05:26:48;;;;;;;9.47;5.87;;;-3.20;99.90;;;;;;5009012;28;20033;-60
2021/03/06 05:29:14;;;;;;;10.17;5.27;;;-3.30;99.90;;;;;;5008984;28;20505;-59
2021/03/06 05:31:39;;;;;;;13.17;6.00;;;-3.30;99.90;;;;;;4996753;28;20056;-58
2021/03/06 05:34:05;;;;;;;11.03;6.87;;;-3.30;99.90;;;;;;5014898;28;20037;-57
2021/03/06 05:36:31;;;;;;;9.93;5.77;;;-3.30;99.90;;;;;;5018295;28;20037;-59
2021/03/06 05:38:56;;;;;;;13.73;6.13;;;-3.40;99.90;;;;;;4995931;28;20527;-58
2021/03/06 05:41:22;;;;;;;14.87;6.60;;;-3.40;99.90;;;;;;5003915;28;20029;-60
2021/03/06 05:43:48;;;;;;;11.13;6.53;;;-3.30;99.90;;;;;;5002607;28;20079;-59
2021/03/06 05:46:18;;;;;;;15.80;5.90;;;-3.30;99.90;;;;;;5003429;28;20064;-58
2021/03/06 05:48:44;;;;;;;14.53;5.90;;;-3.20;99.90;;;;;;5003661;28;20116;-61
2021/03/06 05:51:11;;;;;;;8.97;4.97;;;-3.20;99.90;;;;;;5002217;28;20568;-63
2021/03/06 05:53:39;;;;;;;9.93;5.90;;;-3.20;99.90;;;;;;5013025;28;20041;-57
2021/03/06 05:56:07;;;;;;;15.07;6.40;;;-3.10;99.90;;;;;;5005391;28;20034;-59
2021/03/06 05:58:33;;;;;;;11.17;5.83;;;-3.10;99.90;;;;;;4993329;28;20133;-60
2021/03/06 06:01:01;;;;;;;12.57;6.00;;;-3.10;99.90;;;;;;4980325;28;20045;-59
2021/03/06 06:03:28;;;;;;;17.60;6.57;;;-3.10;99.90;;;;;;5000858;28;20093;-61
2021/03/06 06:05:53;;;;;;;10.77;5.43;;;-3.10;99.90;;;;;;5006790;28;20029;-61
2021/03/06 06:08:19;;;;;;;10.10;5.43;;;-3.10;99.90;;;;;;5006983;28;20082;-61
2021/03/06 06:10:45;;;;;;;13.23;5.33;;;-3.10;99.90;;;;;;5018627;28;20018;-60
2021/03/06 06:13:12;;;;;;;13.27;5.90;;;-3.10;99.90;;;;;;5020426;28;20032;-59
2021/03/06 06:15:38;;;;;;;10.23;5.43;;;-3.10;99.90;;;;;;5013515;28;20041;-61
2021/03/06 06:18:04;;;;;;;11.37;5.37;;;-3.10;99.90;;;;;;5021161;28;20720;-60
2021/03/06 06:20:29;;;;;;;11.83;5.33;;;-3.10;99.90;;;;;;5016540;28;20022;-60
2021/03/06 06:23:16;;;;;;;10.63;5.53;;;-3.10;99.90;;;;;;5017422;28;20108;-60
2021/03/06 06:25:42;;;;;;;10.67;6.00;;;-3.10;99.90;;;;;;5018556;28;20083;-58
2021/03/06 06:28:08;;;;;;;10.63;6.30;;;-3.10;99.90;;;;;;5018097;28;20033;-58
2021/03/06 06:30:34;;;;;;;9.77;5.47;;;-3.10;99.90;;;;;;5005926;28;20152;-60
2021/03/06 06:33:00;;;;;;;10.73;6.60;;;-3.00;99.90;;;;;;5015494;28;20049;-59
2021/03/06 06:35:26;;;;;;;14.37;5.33;;;-3.00;99.90;;;;;;5017548;28;20073;-60
2021/03/06 06:37:57;;;;;;;13.23;6.00;;;-3.00;99.90;;;;;;5019205;28;20049;-60
2021/03/06 06:40:25;;;;;;;17.43;5.73;;;-3.00;99.90;;;;;;5024005;28;20028;-59
2021/03/06 06:42:51;;;;;;;12.87;6.17;;;-3.00;99.90;;;;;;5021537;28;20821;-60
2021/03/06 06:45:17;;;;;;;13.83;6.00;;;-3.00;99.90;;;;;;5012135;28;20105;-61
2021/03/06 06:47:48;;;;;;;13.97;6.03;;;-2.90;99.90;;;;;;5011984;28;20033;-61
2021/03/06 06:50:26;;;;;;;10.50;5.77;;;-2.90;99.90;;;;;;5010976;28;20045;-61
2021/03/06 06:52:52;;;;;;;9.03;5.90;;;-2.80;99.90;;;;;;5016554;28;20447;-61
2021/03/06 06:55:18;;;;;;;15.23;7.07;;;-2.80;99.90;;;;;;5018898;28;20153;-61
2021/03/06 06:57:50;;;;;;;10.17;6.40;;;-2.80;99.90;;;;;;5028004;28;20072;-61
2021/03/06 07:00:17;;;;;;;7.77;5.13;;;-2.70;99.90;;;;;;5009498;28;20604;-58
2021/03/06 07:02:59;;;;;;;12.43;5.70;;;-2.60;99.90;;;;;;5028543;28;20092;-61
2021/03/06 07:05:29;;;;;;;9.00;4.80;;;-2.50;99.90;;;;;;5016979;28;20388;-60
2021/03/06 07:07:55;;;;;;;14.80;5.97;;;-2.40;99.90;;;;;;5024286;28;20033;-60
2021/03/06 07:10:21;;;;;;;6.77;4.70;;;-2.10;99.90;;;;;;5019459;28;20530;-61
2021/03/06 07:13:02;;;;;;;10.03;4.07;;;-1.30;99.90;;;;;;5024768;28;20025;-62
2021/03/06 07:15:29;;;;;;;9.18;4.00;;;-0.10;99.90;;;;;;5015377;28;20068;-59
2021/03/06 07:18:00;;;;;;;8.40;4.03;;;0.80;99.90;;;;;;5023119;28;20037;-58
2021/03/06 07:20:29;;;;;;;11.30;4.87;;;0.60;99.90;;;;;;5019522;28;20483;-60
2021/03/06 07:22:57;;;;;;;8.93;5.07;;;0.20;99.90;;;;;;5021864;28;20048;-59
2021/03/06 07:25:24;;;;;;;10.07;5.43;;;-0.20;99.90;;;;;;5016525;28;20113;-59
2021/03/06 07:27:49;;;;;;;8.37;4.77;;;-0.50;99.90;;;;;;5024203;28;20403;-59
2021/03/06 07:30:17;;;;;;;7.50;4.33;;;-0.70;99.90;;;;;;5010458;28;20030;-60
2021/03/06 07:32:46;;;;;;;10.10;5.23;;;-0.90;99.90;;;;;;5020238;28;20073;-59
2021/03/06 07:35:13;;;;;;;11.60;6.10;;;-1.10;99.90;;;;;;5025523;28;20395;-61
2021/03/06 07:37:39;;;;;;;13.17;6.47;;;-1.10;99.90;;;;;;5020551;28;20486;-61
2021/03/06 07:40:14;;;;;;;9.57;5.17;;;-1.10;99.90;;;;;;5024571;28;20557;-59
2021/03/06 07:42:47;;;;;;;12.10;5.60;;;-1.10;99.90;;;;;;5020786;28;20033;-61
2021/03/06 07:45:18;;;;;;;12.47;6.37;;;-1.00;99.90;;;;;;5005615;28;20022;-61
2021/03/06 07:47:47;;;;;;;14.00;6.67;;;-0.90;99.90;;;;;;5015623;28;20033;-61
2021/03/06 07:50:21;;;;;;;10.80;6.17;;;-0.80;99.90;;;;;;5018009;28;20423;-61
2021/03/06 07:52:47;;;;;;;14.27;6.40;;;-0.70;99.90;;;;;;5014907;28;20029;-61
2021/03/06 07:55:13;;;;;;;12.40;5.53;;;-0.60;99.90;;;;;;5017243;28;20026;-61
2021/03/06 07:58:06;;;;;;;11.57;6.33;;;-0.60;99.90;;;;;;5020385;28;20024;-60
2021/03/06 08:00:51;;;;;;;11.17;5.17;;;-0.50;99.90;;;;;;5015672;28;20037;-61
2021/03/06 08:03:22;;;;;;;10.38;5.80;;;-0.40;99.90;;;;;;5021370;28;20539;-61
2021/03/06 08:05:49;;;;;;;8.33;5.03;;;-0.30;99.90;;;;;;5012084;28;20024;-62
2021/03/06 08:08:33;;;;;;;10.03;5.53;;;-0.20;99.90;;;;;;5013420;28;20033;-61
2021/03/06 08:11:18;;;;;;;10.43;5.30;;;-0.10;99.90;;;;;;5016823;28;20032;-60
2021/03/06 08:13:49;;;;;;;9.47;4.87;;;0.00;99.90;;;;;;5021166;28;20564;-62
2021/03/06 08:16:24;;;;;;;18.80;5.30;;;0.10;99.90;;;;;;5015774;28;20107;-62
2021/03/06 08:18:59;;;;;;;;;;;0.20;99.90;;;;;;5022825;28;20017;-60
2021/03/06 08:21:35;;;;;;;9.40;5.00;;;0.40;99.90;;;;;;5017219;28;20027;-62
2021/03/06 08:24:18;;;;;;;11.77;6.20;;;0.60;99.90;;;;;;5019691;28;20018;-60
2021/03/06 08:27:02;;;;;;;12.05;6.57;;;0.80;99.90;;;;;;5013435;28;20025;-59
2021/03/06 08:29:29;;;;;;;14.65;6.07;;;0.90;99.90;;;;;;5019046;28;20077;-61
2021/03/06 08:32:02;;;;;;;10.00;5.40;;;1.10;99.90;;;;;;5021962;28;20466;-61
2021/03/06 08:34:34;;;;;;;6.93;4.27;;;1.20;99.90;;;;;;5017063;28;20029;-61
2021/03/06 08:37:15;;;;;;;10.05;5.13;;;1.30;99.90;;;;;;5019874;28;20402;-60
2021/03/06 08:39:44;;;;;;;10.20;5.00;;;1.40;99.90;;;;;;5019977;28;20033;-62
2021/03/06 08:42:12;;;;;;;10.32;5.00;;;1.50;99.90;;;;;;5015490;28;20029;-57
2021/03/06 08:44:38;;;;;;;7.45;4.18;;;1.50;99.90;;;;;;4952427;28;20088;-62
2021/03/06 08:47:05;;;;;;;9.68;5.03;;;1.60;99.90;;;;;;4996815;28;20048;-60
2021/03/06 08:49:31;;;;;;;9.27;5.07;;;1.60;99.90;;;;;;4996314;28;20034;-61
2021/03/06 08:51:57;;;;;;;13.45;5.18;;;1.70;99.90;;;;;;4991209;28;20026;-61
2021/03/06 08:54:23;;;;;;;8.85;4.78;;;1.90;99.90;;;;;;4998754;28;20384;-61
2021/03/06 08:56:49;;;;;;;5.07;3.05;;;2.00;99.90;;;;;;4991471;28;20122;-63
2021/03/06 08:59:15;;;;;;;6.90;4.00;;;2.10;99.90;;;;;;4998780;28;20105;-63
2021/03/06 09:01:43;;;;;;;13.35;4.13;;;2.20;99.90;;;;;;4992110;28;20559;-63
2021/03/06 09:04:09;;;;;;;6.50;3.40;;;2.30;99.90;;;;;;4993803;28;20038;-59
2021/03/06 09:06:36;;;;;;;8.98;3.78;;;2.30;99.90;;;;;;4995728;28;20026;-58
2021/03/06 09:09:05;;;;;;;8.85;3.92;;;2.40;99.90;;;;;;5000758;28;20442;-58
2021/03/06 09:11:31;;;;;;;8.93;4.10;;;2.50;99.90;;;;;;4999620;28;20052;-62
2021/03/06 09:13:56;;;;;;;7.90;4.45;;;2.60;99.90;;;;;;5001114;28;20053;-61
2021/03/06 09:16:22;;;;;;;7.43;4.10;;;2.80;99.90;;;;;;4996049;28;20395;-62
2021/03/06 09:18:47;;;;;;;7.35;3.83;;;2.90;99.90;;;;;;4999114;28;20117;-62
2021/03/06 09:21:18;;;;;;;8.02;3.88;;;3.10;99.90;;;;;;4999705;28;20464;-62
2021/03/06 09:23:45;;;;;;;8.90;3.83;;;3.60;99.90;;;;;;4987767;28;20026;-62
2021/03/06 09:26:16;;;;;;;7.40;4.05;;;4.30;99.90;;;;;;5001982;28;20018;-62
2021/03/06 09:28:44;;;;;;;7.05;3.78;;;5.10;99.90;;;;;;4998988;28;20022;-62
2021/03/06 09:31:15;;;;;;;9.18;3.40;;;5.50;99.10;;;;;;4993151;28;20372;-62
2021/03/06 09:33:41;;;;;;;6.13;3.53;;;6.10;97.30;;;;;;4994334;28;20088;-62
2021/03/06 09:36:20;;;;;;;5.85;3.67;;;6.60;96.90;;;;;;5000774;28;20029;-62
2021/03/06 09:38:50;;;;;;;6.95;3.58;;;6.90;93.40;;;;;;4986789;28;20387;-63
2021/03/06 09:41:29;;;;;;;4.90;3.45;;;7.20;91.50;;;;;;4996534;28;20019;-62
2021/03/06 09:44:00;;;;;;;5.07;3.40;;;7.80;91.70;;;;;;4983159;28;20027;-63
2021/03/06 09:46:28;;;;;;;4.35;3.40;;;7.70;86.10;;;;;;4983044;28;20049;-62
2021/03/06 09:49:04;;;;;;;6.53;3.17;;;7.80;83.10;;;;;;5001810;28;20025;-63
2021/03/06 09:51:47;;;;;;;9.02;3.70;;;8.10;81.00;;;;;;4989306;28;20145;-63
2021/03/06 09:54:15;;;;;;;5.77;3.83;;;8.60;76.60;;;;;;4994134;28;20088;-62
2021/03/06 09:56:53;;;;;;;4.95;3.40;;;9.20;70.30;;;;;;4993838;28;20030;-62
2021/03/06 09:59:21;;;;;;;6.35;3.50;;;9.40;66.90;;;;;;4998677;28;20491;-63
2021/03/06 10:01:47;;;;;;;5.68;3.15;;;9.10;68.20;;;;;;4987758;28;20510;-62
2021/03/06 10:04:14;;;;;;;5.75;3.03;;;8.90;67.00;;;;;;5003675;28;20030;-62
2021/03/06 10:06:43;;;;;;;4.72;2.88;;;9.00;66.10;;;;;;4990470;28;20159;-63
2021/03/06 10:09:11;;;;;;;6.38;3.08;;;8.80;67.10;;;;;;4996965;28;20399;-63
2021/03/06 10:11:46;;;;;;;5.28;3.17;;;8.70;62.40;;;;;;4998404;28;20462;-62
2021/03/06 10:14:17;;;;;;;3.35;2.80;;;8.80;63.90;;;;;;5001916;28;20053;-63
2021/03/06 10:16:47;;;;;;;5.03;3.35;;;9.30;61.00;;;;;;4994087;28;20126;-62
2021/03/06 10:19:13;;;;;;;3.88;2.83;;;9.50;60.00;;;;;;5002807;28;20150;-62
2021/03/06 10:21:38;;;;;;;5.53;2.97;;;9.60;60.00;;;;;;4999180;28;20027;-61
2021/03/06 10:24:06;;;;;;;4.25;2.75;;;9.20;60.00;;;;;;4998415;28;20033;-61
2021/03/06 10:26:33;;;;;;;5.45;3.85;;;9.00;57.70;;;;;;5002724;28;20057;-60
2021/03/06 10:29:19;;;;;;;4.55;3.03;;;8.40;58.50;;;;;;4997314;28;20357;-60
2021/03/06 10:31:45;;;;;;;4.85;2.83;;;8.00;61.30;;;;;;4990388;28;20039;-60
2021/03/06 10:34:25;;;;;;;4.72;2.70;;;7.50;63.60;;;;;;4992512;28;20084;-61
2021/03/06 10:37:09;;;;;;;8.88;3.35;;;7.60;62.70;;;;;;4990565;28;20026;-61
2021/03/06 10:39:54;;;;;;;6.93;2.70;;;7.20;61.90;;;;;;4993096;28;20395;-60
2021/03/06 10:42:19;;;;;;;;;;;7.00;62.80;;;;;;4990038;28;20050;-61
2021/03/06 10:44:45;;;;;;;6.60;2.80;;;6.90;62.80;;;;;;4981323;28;19914;-60
2021/03/06 10:47:11;;;;;;;5.50;2.80;;;6.90;64.30;;;;;;5001903;28;20483;-61
2021/03/06 10:49:41;;;;;;;6.10;2.97;;;7.00;63.60;;;;;;4995518;28;20077;-60
2021/03/06 10:52:24;;;;;;;4.70;2.22;;;6.90;63.30;;;;;;4985686;28;20484;-61
2021/03/06 10:54:54;;;;;;;5.55;3.22;;;6.90;63.50;;;;;;4986161;28;20109;-61
2021/03/06 10:57:20;;;;;;;6.65;2.92;;;6.70;63.90;;;;;;4985212;28;20058;-61
2021/03/06 10:59:46;;;;;;;8.43;3.47;;;6.80;64.80;;;;;;4987544;28;20061;-61
2021/03/06 11:02:27;;;;;;;4.43;2.55;;;6.90;65.30;;;;;;4989982;28;20030;-61
2021/03/06 11:04:53;;;;;;;5.40;3.28;;;6.90;66.10;;;;;;4986715;28;20641;-61
2021/03/06 11:07:27;;;;;;;5.97;2.92;;;7.00;66.50;;;;;;4990250;28;20403;-61
2021/03/06 11:09:57;;;;;;;8.50;2.85;;;6.90;64.60;;;;;;4987651;28;20081;-61
2021/03/06 11:12:30;;;;;;;4.18;2.95;;;7.10;64.30;;;;;;4991331;28;20034;-60
2021/03/06 11:15:13;;;;;;;7.50;2.90;;;7.20;63.80;;;;;;4987708;28;20744;-59
2021/03/06 11:17:41;;;;;;;4.93;2.83;;;7.20;63.00;;;;;;4999692;28;20077;-61
2021/03/06 11:20:08;;;;;;;4.60;3.00;;;7.00;61.40;;;;;;4996671;28;20045;-61
2021/03/06 11:22:34;;;;;;;4.72;2.83;;;6.80;62.50;;;;;;4999857;28;20030;-60
2021/03/06 11:24:59;;;;;;;4.70;3.05;;;6.70;61.50;;;;;;4985662;28;20503;-61
2021/03/06 11:27:25;;;;;;;3.80;2.38;;;6.60;60.70;;;;;;4987346;28;20032;-61
2021/03/06 11:29:51;;;;;;;7.07;2.55;;;6.60;63.00;;;;;;4995838;28;20074;-60
2021/03/06 11:32:19;;;;;;;5.13;2.90;;;6.70;63.10;;;;;;4999432;28;20022;-59
2021/03/06 11:34:45;;;;;;;5.43;3.15;;;6.70;63.20;;;;;;4990897;28;20034;-61
2021/03/06 11:37:10;;;;;;;4.57;2.63;;;6.70;65.30;;;;;;5000995;28;20423;-61
2021/03/06 11:39:36;;;;;;;4.60;2.70;;;6.70;63.20;;;;;;5000187;28;20653;-62
2021/03/06 11:42:01;;;;;;;4.25;2.75;;;6.70;64.80;;;;;;5004246;28;20045;-62
2021/03/06 11:44:27;;;;;;;5.88;2.78;;;6.80;64.50;;;;;;4988550;28;20373;-62
2021/03/06 11:46:52;;;;;;;6.60;2.58;;;6.80;62.60;;;;;;4995897;28;20029;-62
2021/03/06 11:49:18;;;;;;;7.13;3.40;;;6.80;60.50;;;;;;4998493;28;20105;-62
2021/03/06 11:51:44;;;;;;;7.65;2.60;;;6.90;61.50;;;;;;4983751;28;20153;-60
2021/03/06 11:54:09;;;;;;;5.13;2.70;;;6.90;62.70;;;;;;4987926;28;20526;-62
2021/03/06 11:56:35;;;;;;;5.65;2.65;;;7.00;61.10;;;;;;4979542;28;20031;-61
2021/03/06 11:59:00;;;;;;;5.80;3.22;;;7.00;62.00;;;;;;4978687;28;20011;-60
2021/03/06 12:01:26;;;;;;;4.35;2.47;;;7.00;59.90;;;;;;4996545;28;20032;-61
2021/03/06 12:03:53;;;;;;;4.20;2.70;;;7.00;59.60;;;;;;4999197;28;20037;-61
2021/03/06 12:06:19;;;;;;;3.88;2.25;;;7.00;58.40;;;;;;5001823;28;20115;-62
2021/03/06 12:08:46;;;;;;;6.07;3.00;;;6.80;59.70;;;;;;4995858;28;20080;-61
2021/03/06 12:11:12;;;;;;;4.68;2.47;;;6.70;58.00;;;;;;5001167;28;20603;-62
2021/03/06 12:13:38;;;;;;;5.32;2.63;;;6.80;57.50;;;;;;4999218;28;20109;-61
2021/03/06 12:16:04;;;;;;;3.90;2.30;;;6.80;59.50;;;;;;4989136;28;20037;-62
2021/03/06 12:18:30;;;;;;;4.80;2.70;;;6.80;58.50;;;;;;5002603;28;20136;-61
2021/03/06 12:20:55;;;;;;;5.32;2.65;;;6.80;60.30;;;;;;4999870;28;20093;-61
2021/03/06 12:23:21;;;;;;;6.15;2.85;;;6.70;59.10;;;;;;4985493;28;20054;-61
2021/03/06 12:25:46;;;;;;;4.57;3.00;;;6.70;58.80;;;;;;4995842;28;20033;-61
2021/03/06 12:28:12;;;;;;;5.07;2.90;;;6.60;60.00;;;;;;4987380;28;20081;-61
2021/03/06 12:30:38;;;;;;;5.13;2.95;;;6.70;59.30;;;;;;4988898;28;20041;-62
2021/03/06 12:33:03;;;;;;;5.72;2.72;;;6.80;60.30;;;;;;4991965;28;20038;-62
2021/03/06 12:35:29;;;;;;;4.13;2.72;;;6.80;58.40;;;;;;5004427;28;20025;-62
2021/03/06 12:37:55;;;;;;;5.85;3.00;;;6.70;60.60;;;;;;4985791;28;20038;-62
2021/03/06 12:40:20;;;;;;;5.90;3.33;;;6.80;61.70;;;;;;4989763;28;20037;-61
2021/03/06 12:42:46;;;;;;;5.10;3.25;;;6.80;60.50;;;;;;4985196;28;20034;-62
2021/03/06 12:45:13;;;;;;;4.32;2.40;;;6.80;60.80;;;;;;4966684;28;20034;-64
2021/03/06 12:47:39;;;;;;;6.18;3.15;;;6.80;59.00;;;;;;4975906;28;20065;-60
2021/03/06 12:50:06;;;;;;;5.72;2.40;;;6.90;59.90;;;;;;4979736;28;20065;-62
2021/03/06 12:52:32;;;;;;;6.90;2.90;;;7.00;61.80;;;;;;4984175;28;20118;-61